Time;durP1;ratioP1;P1;durP2;ratioP2;P2;SDS_P1;SDS_P2;PMS_P1;PMS_P2;Temp;Humidity;BMP_temperature;BMP_pressure;BME280_temperature;BME280_humidity;BME280_pressure;Samples;Min_cycle;Max_cycle;Signal;HPM_P1;HPM_P2
2021/06/21 00:00:23;;;;;;;5.83;1.97;;;;;;;17.93;100.00;155970.38;5089953;28;20436;-74
2021/06/21 00:02:59;;;;;;;5.47;2.30;;;;;;;17.93;100.00;155969.06;5079860;28;20477;-75
2021/06/21 00:05:34;;;;;;;4.13;1.80;;;;;;;17.93;100.00;155969.06;5077443;28;20449;-74
2021/06/21 00:08:12;;;;;;;6.37;1.80;;;;;;;17.95;100.00;155974.31;5075820;28;20452;-74
2021/06/21 00:10:47;;;;;;;3.83;2.10;;;;;;;17.94;100.00;155971.69;5099365;28;20456;-74
2021/06/21 00:13:23;;;;;;;5.20;1.60;;;;;;;17.93;100.00;155970.38;5112486;28;20847;-74
2021/06/21 00:15:58;;;;;;;7.93;1.87;;;;;;;17.90;100.00;155962.56;5085915;28;20498;-75
2021/06/21 00:18:34;;;;;;;3.33;1.60;;;;;;;17.97;100.00;155979.50;5088203;28;20857;-75
2021/06/21 00:21:10;;;;;;;5.40;3.13;;;;;;;18.00;100.00;155987.31;5077693;28;20437;-74
2021/06/21 00:23:47;;;;;;;4.43;2.40;;;;;;;18.01;100.00;155989.88;5077622;28;20527;-75
2021/06/21 00:26:22;;;;;;;6.50;1.87;;;;;;;18.01;100.00;155989.88;5073953;28;20476;-75
2021/06/21 00:28:58;;;;;;;6.73;2.13;;;;;;;17.98;100.00;155982.06;5077109;28;20467;-75
2021/06/21 00:31:34;;;;;;;5.00;1.80;;;;;;;17.93;100.00;155970.38;5076696;28;20968;-74
2021/06/21 00:34:10;;;;;;;6.73;1.80;;;;;;;17.93;100.00;155969.06;5075510;28;20874;-74
2021/06/21 00:36:46;;;;;;;5.73;2.03;;;;;;;17.89;100.00;155958.66;5095674;28;20437;-74
2021/06/21 00:39:22;;;;;;;4.00;2.07;;;;;;;17.88;100.00;155957.34;5081251;28;20551;-75
2021/06/21 00:41:58;;;;;;;6.80;2.00;;;;;;;17.90;100.00;155962.56;5087886;28;20806;-74
2021/06/21 00:44:34;;;;;;;3.33;1.97;;;;;;;17.88;100.00;155957.34;5076975;28;20449;-74
2021/06/21 00:47:13;;;;;;;3.30;1.90;;;;;;;17.92;100.00;155967.78;5076891;28;20444;-74
2021/06/21 00:49:48;;;;;;;4.43;2.03;;;;;;;17.89;100.00;155959.97;5078712;28;20437;-75
2021/06/21 00:52:24;;;;;;;4.17;1.80;;;;;;;17.96;100.00;155976.88;5096046;28;20507;-74
2021/06/21 00:55:01;;;;;;;6.70;1.70;;;;;;;17.96;100.00;155978.19;5096523;28;20783;-74
2021/06/21 00:57:37;;;;;;;5.73;1.70;;;;;;;17.96;100.00;155976.88;5077387;28;20532;-74
2021/06/21 01:00:15;;;;;;;8.60;2.23;;;;;;;17.93;100.00;155970.38;5095071;28;20440;-74
2021/06/21 01:02:51;;;;;;;5.40;2.20;;;;;;;17.90;100.00;155961.25;5103001;28;20848;-75
2021/06/21 01:05:29;;;;;;;3.10;2.27;;;;;;;17.91;100.00;155963.88;5079566;28;20472;-75
2021/06/21 01:08:06;;;;;;;7.83;2.37;;;;;;;17.95;100.00;155974.31;5079879;28;20448;-74
2021/06/21 01:10:46;;;;;;;3.97;1.77;;;;;;;17.92;100.00;155967.78;5078442;28;20464;-75
2021/06/21 01:13:59;;;;;;;4.33;1.83;;;;;;;17.90;100.00;155962.56;5094465;28;20930;-74
2021/06/21 01:16:39;;;;;;;5.37;1.70;;;;;;;17.84;100.00;155946.97;5044329;28;20445;-74
2021/06/21 01:19:22;;;;;;;3.50;1.73;;;;;;;17.81;100.00;155939.16;5079546;28;20459;-74
2021/06/21 01:22:27;;;;;;;4.20;1.73;;;;;;;17.76;100.00;155926.13;5077084;28;20923;-75
2021/06/21 01:25:33;;;;;;;6.70;2.10;;;;;;;17.72;100.00;155915.69;5076166;28;20444;-75
2021/06/21 01:28:20;;;;;;;7.47;1.70;;;;;;;17.79;100.00;155933.91;5080330;28;20912;-75
2021/06/21 01:31:03;;;;;;;6.10;2.10;;;;;;;17.78;100.00;155931.31;5101864;28;20464;-75
2021/06/21 01:33:40;;;;;;;3.63;2.20;;;;;;;17.72;100.00;155915.69;5094212;28;20490;-75
2021/06/21 01:36:17;;;;;;;4.83;1.93;;;;;;;17.72;100.00;155914.38;5099336;28;20850;-74
2021/06/21 01:38:56;;;;;;;6.67;1.93;;;;;;;17.71;100.00;155913.13;5080070;28;20935;-75
2021/06/21 01:41:34;;;;;;;6.07;1.77;;;;;;;17.68;100.00;155905.28;5074681;28;20436;-74
2021/06/21 01:44:10;;;;;;;5.57;1.87;;;;;;;17.65;100.00;155897.47;5060824;28;20970;-75
2021/06/21 01:46:47;;;;;;;9.03;1.97;;;;;;;17.60;100.00;155885.78;5084885;28;20449;-74
2021/06/21 01:49:24;;;;;;;8.10;2.30;;;;;;;17.59;100.00;155881.84;5095105;28;20449;-74
2021/06/21 01:52:01;;;;;;;3.13;1.50;;;;;;;17.60;100.00;155885.78;5090704;28;20454;-74
2021/06/21 01:54:38;;;;;;;5.87;1.87;;;;;;;17.59;100.00;155881.84;5075681;28;20460;-75
2021/06/21 01:57:14;;;;;;;6.20;1.70;;;;;;;17.52;100.00;155863.59;5075748;28;20919;-74
2021/06/21 01:59:51;;;;;;;7.30;1.80;;;;;;;17.55;100.00;155872.72;5108742;28;20476;-74
2021/06/21 02:02:27;;;;;;;9.00;2.40;;;;;;;17.57;100.00;155877.97;5081226;28;20845;-74
2021/06/21 02:05:06;;;;;;;8.17;2.20;;;;;;;17.57;100.00;155877.97;5076066;28;20944;-74
2021/06/21 02:07:42;;;;;;;3.40;1.50;;;;;;;17.51;100.00;155862.28;5105884;28;20877;-75
2021/06/21 02:10:19;;;;;;;3.90;2.00;;;;;;;17.55;100.00;155872.72;5086702;28;20437;-75
2021/06/21 02:12:55;;;;;;;3.50;2.00;;;;;;;17.50;100.00;155858.38;5075270;28;20465;-74
2021/06/21 02:15:31;;;;;;;8.50;2.20;;;;;;;17.47;100.00;155850.56;5082999;28;20441;-74
2021/06/21 02:18:08;;;;;;;4.73;1.83;;;;;;;17.55;100.00;155871.47;5089564;28;20448;-74
2021/06/21 02:20:46;;;;;;;6.63;2.20;;;;;;;17.44;100.00;155844.06;5084953;28;20939;-74
2021/06/21 02:23:22;;;;;;;6.37;1.77;;;;;;;17.41;100.00;155834.94;5088278;28;20440;-74
2021/06/21 02:25:59;;;;;;;5.63;2.30;;;;;;;17.42;100.00;155837.56;5094736;28;20432;-74
2021/06/21 02:28:35;;;;;;;4.43;2.20;;;;;;;17.34;100.00;155818.00;5103668;28;20457;-75
2021/06/21 02:31:11;;;;;;;6.73;1.70;;;;;;;17.37;100.00;155824.50;5080999;28;20941;-74
2021/06/21 02:33:47;;;;;;;5.70;1.80;;;;;;;17.43;100.00;155840.13;5084083;28;20484;-74
2021/06/21 02:36:25;;;;;;;4.70;2.10;;;;;;;17.38;100.00;155828.44;5064789;28;20437;-74
2021/06/21 02:39:00;;;;;;;4.53;2.00;;;;;;;17.40;100.00;155832.31;5075055;28;20495;-74
2021/06/21 02:41:36;;;;;;;4.50;2.07;;;;;;;17.36;100.00;155821.94;5084445;28;20504;-74
2021/06/21 02:44:12;;;;;;;4.87;1.87;;;;;;;17.38;100.00;155827.13;5093405;28;20449;-74
2021/06/21 02:46:47;;;;;;;6.90;1.80;;;;;;;17.32;100.00;155811.50;5093189;28;20447;-74
2021/06/21 02:49:23;;;;;;;5.30;2.20;;;;;;;17.37;100.00;155824.50;5078105;28;20454;-75
2021/06/21 02:52:04;;;;;;;4.37;1.80;;;;;;;17.38;100.00;155827.13;5090887;28;20465;-75
2021/06/21 02:54:44;;;;;;;2.80;1.90;;;;;;;17.36;100.00;155823.25;5084596;28;20446;-74
2021/06/21 02:57:26;;;;;;;4.00;2.33;;;;;;;17.34;100.00;155816.72;5075454;28;20808;-74
2021/06/21 03:00:02;;;;;;;4.37;2.40;;;;;;;17.27;100.00;155798.47;5096296;28;20856;-75
2021/06/21 03:02:39;;;;;;;5.10;2.57;;;;;;;17.30;100.00;155806.28;5092621;28;20457;-74
2021/06/21 03:05:15;;;;;;;5.60;2.40;;;;;;;17.35;100.00;155819.31;5079640;28;20433;-74
2021/06/21 03:07:53;;;;;;;4.20;1.93;;;;;;;17.30;100.00;155806.28;5089356;28;20437;-74
2021/06/21 03:10:29;;;;;;;6.17;2.37;;;;;;;17.28;100.00;155802.41;5085328;28;20453;-74
2021/06/21 03:13:05;;;;;;;7.87;1.93;;;;;;;17.23;100.00;155788.09;5085495;28;20907;-75
2021/06/21 03:15:41;;;;;;;6.30;3.03;;;;;;;17.23;100.00;155789.41;5079712;28;20437;-74
2021/06/21 03:18:19;;;;;;;3.47;1.90;;;;;;;17.26;100.00;155795.91;5087051;28;20452;-74
2021/06/21 03:20:56;;;;;;;3.73;2.17;;;;;;;17.23;100.00;155789.41;5081672;28;20452;-75
2021/06/21 03:23:34;;;;;;;6.17;2.07;;;;;;;17.23;100.00;155788.09;5076784;28;20502;-74
2021/06/21 03:26:10;;;;;;;3.90;1.80;;;;;;;17.28;100.00;155802.41;5092408;28;20923;-74
2021/06/21 03:28:45;;;;;;;6.07;1.83;;;;;;;17.32;100.00;155811.50;5101727;28;20790;-75
2021/06/21 03:31:21;;;;;;;7.70;2.50;;;;;;;17.30;100.00;155807.63;5078656;28;20544;-74
2021/06/21 03:33:57;;;;;;;7.80;2.17;;;;;;;17.32;100.00;155811.50;5070264;28;20466;-74
2021/06/21 03:36:32;;;;;;;5.60;2.20;;;;;;;17.30;100.00;155806.28;5070963;28;20485;-74
2021/06/21 03:39:09;;;;;;;6.43;2.23;;;;;;;17.38;100.00;155827.13;5070490;28;20489;-74
2021/06/21 03:41:45;;;;;;;4.37;2.10;;;;;;;17.34;100.00;155816.72;5082990;28;20540;-75
2021/06/21 03:44:21;;;;;;;9.33;2.00;;;;;;;17.34;100.00;155816.72;5084473;28;20843;-74
2021/06/21 03:46:56;;;;;;;4.53;1.97;;;;;;;17.32;100.00;155811.50;5093222;28;20452;-74
2021/06/21 03:49:32;;;;;;;8.40;2.93;;;;;;;17.35;100.00;155819.31;5074215;28;20452;-74
2021/06/21 03:52:08;;;;;;;5.70;1.87;;;;;;;17.42;100.00;155838.81;5088521;28;20461;-75
2021/06/21 03:54:45;;;;;;;7.30;2.20;;;;;;;17.46;100.00;155847.94;5074904;28;20551;-74
2021/06/21 03:57:20;;;;;;;4.47;1.50;;;;;;;17.52;100.00;155863.59;5074667;28;20445;-74
2021/06/21 03:59:56;;;;;;;6.20;2.23;;;;;;;17.51;100.00;155860.97;5079729;28;20432;-74
2021/06/21 04:02:31;;;;;;;6.27;2.00;;;;;;;17.64;100.00;155894.84;5085142;28;20503;-74
2021/06/21 04:05:08;;;;;;;7.47;2.23;;;;;;;17.69;100.00;155907.88;5089543;28;20452;-74
2021/06/21 04:07:45;;;;;;;4.30;1.93;;;;;;;17.98;100.00;155983.38;5094790;28;20790;-74
2021/06/21 04:10:23;;;;;;;4.07;1.67;;;;;;;18.40;99.39;156090.22;5093381;28;20448;-74
2021/06/21 04:12:59;;;;;;;5.63;1.80;;;;;;;18.82;96.44;156199.69;5095282;28;20553;-74
2021/06/21 04:15:34;;;;;;;7.67;2.60;;;;;;;19.07;94.07;156264.81;5079118;28;20943;-74
2021/06/21 04:18:12;;;;;;;10.43;2.10;;;;;;;18.86;93.10;156210.09;5082343;28;20450;-74
2021/06/21 04:20:48;;;;;;;7.53;2.57;;;;;;;18.66;94.98;156158.00;5079744;28;20956;-74
2021/06/21 04:23:24;;;;;;;3.73;2.50;;;;;;;18.54;96.41;156126.69;5075119;28;20472;-74
2021/06/21 04:26:01;;;;;;;6.23;1.93;;;;;;;18.30;95.62;156065.44;5089398;28;20795;-74
2021/06/21 04:28:36;;;;;;;5.70;1.83;;;;;;;18.16;97.32;156030.25;5073358;28;20458;-74
2021/06/21 04:31:12;;;;;;;8.13;2.20;;;;;;;18.04;99.91;155997.72;5073257;28;20453;-74
2021/06/21 04:33:48;;;;;;;4.40;2.17;;;;;;;18.01;100.00;155991.22;5086674;28;20457;-74
2021/06/21 04:36:23;;;;;;;6.23;1.83;;;;;;;18.00;100.00;155987.31;5095228;28;20481;-74
2021/06/21 04:38:59;;;;;;;5.20;2.00;;;;;;;18.04;100.00;155997.72;5084692;28;20525;-74
2021/06/21 04:41:36;;;;;;;3.00;1.57;;;;;;;18.04;100.00;155999.03;5076776;28;20452;-74
2021/06/21 04:44:11;;;;;;;7.50;1.90;;;;;;;18.05;99.97;156001.66;5095439;28;20913;-74
2021/06/21 04:46:47;;;;;;;4.13;2.10;;;;;;;17.94;100.00;155973.00;5095634;28;20436;-74
2021/06/21 04:49:22;;;;;;;6.10;1.90;;;;;;;18.01;100.00;155989.88;5080847;28;20460;-74
2021/06/21 04:51:58;;;;;;;2.60;1.83;;;;;;;17.82;100.00;155940.44;5095632;28;20493;-74
2021/06/21 04:54:34;;;;;;;2.30;1.60;;;;;;;17.92;100.00;155967.78;5093517;28;20453;-74
2021/06/21 04:57:11;;;;;;;6.07;2.20;;;;;;;18.46;97.82;156105.81;5083383;28;20519;-74
2021/06/21 04:59:50;;;;;;;3.33;1.60;;;;;;;19.55;93.00;156387.38;5076073;28;20444;-74
2021/06/21 05:02:26;;;;;;;4.13;2.07;;;;;;;20.39;88.10;156605.16;5077254;28;20449;-74
2021/06/21 05:05:02;;;;;;;4.20;1.93;;;;;;;20.83;85.29;156718.69;5095438;28;20532;-74
2021/06/21 05:07:39;;;;;;;4.90;2.33;;;;;;;21.37;82.95;156859.66;5077038;28;20799;-90
2021/06/21 05:10:15;;;;;;;5.20;2.10;;;;;;;21.36;81.72;156857.09;5095530;28;20406;-90
2021/06/21 05:12:53;;;;;;;3.93;1.50;;;;;;;21.07;82.54;156782.69;5095307;28;20461;-93
2021/06/21 05:15:28;;;;;;;5.03;2.17;;;;;;;21.46;81.91;156883.19;5094398;28;20813;-92
2021/06/21 05:18:04;;;;;;;5.53;2.33;;;;;;;21.74;81.77;156954.94;5077373;28;20437;-92
2021/06/21 05:20:40;;;;;;;4.73;2.20;;;;;;;21.96;78.37;157011.16;5077637;28;20832;-94
2021/06/21 05:23:15;;;;;;;5.20;2.10;;;;;;;22.18;79.40;157068.63;5077758;28;20532;-84
2021/06/21 05:25:51;;;;;;;6.87;2.10;;;;;;;22.51;77.98;157154.81;5095235;28;20425;-93
2021/06/21 05:28:27;;;;;;;7.07;1.50;;;;;;;22.89;75.91;157254.16;5087917;28;20529;-94
2021/06/21 05:31:03;;;;;;;4.00;1.47;;;;;;;23.23;73.54;157340.41;5098724;28;20464;-93
2021/06/21 05:33:39;;;;;;;2.63;1.70;;;;;;;23.42;74.17;157390.13;5097568;28;20578;-94
2021/06/21 05:36:14;;;;;;;3.90;2.10;;;;;;;23.35;71.84;157373.06;5097882;28;20475;-94
2021/06/21 05:38:50;;;;;;;4.53;1.80;;;;;;;23.53;74.46;157420.22;5082335;28;20448;-95
2021/06/21 05:41:26;;;;;;;3.70;1.50;;;;;;;23.93;72.53;157523.47;5086234;28;20459;-94
2021/06/21 05:44:02;;;;;;;4.43;1.97;;;;;;;24.14;70.05;157578.47;5077646;28;20472;-95
2021/06/21 05:46:38;;;;;;;3.80;1.60;;;;;;;24.33;69.16;157625.53;5095578;28;20887;-95
2021/06/21 05:49:14;;;;;;;3.70;1.90;;;;;;;24.86;67.15;157764.19;5077557;28;20924;-95
2021/06/21 05:51:49;;;;;;;6.17;2.17;;;;;;;24.78;68.66;157744.56;5077299;28;20429;-95
2021/06/21 05:54:25;;;;;;;4.57;1.43;;;;;;;24.53;68.29;157679.16;5095555;28;20437;-96
2021/06/21 05:57:00;;;;;;;5.30;2.03;;;;;;;24.17;69.79;157585.00;5095365;28;20417;-96
2021/06/21 05:59:37;;;;;;;3.30;1.67;;;;;;;24.59;68.90;157693.53;5095668;28;20427;-96
2021/06/21 06:02:12;;;;;;;6.13;1.97;;;;;;;24.18;68.66;157588.91;5098289;28;20402;-96
2021/06/21 06:04:48;;;;;;;4.10;1.83;;;;;;;23.70;70.53;157463.31;5096042;28;20421;-96
2021/06/21 06:07:24;;;;;;;6.60;2.20;;;;;;;24.17;71.41;157586.25;5096123;28;20817;-96
2021/06/21 06:09:59;;;;;;;5.10;1.90;;;;;;;23.23;72.66;157341.72;5079219;28;20932;-96
2021/06/21 06:12:35;;;;;;;3.00;1.70;;;;;;;23.22;73.19;157339.06;5077217;28;20465;-96
2021/06/21 06:15:13;;;;;;;6.30;2.27;;;;;;;24.06;69.01;157556.16;5077724;28;20840;-96
2021/06/21 06:17:49;;;;;;;5.63;2.30;;;;;;;24.81;66.45;157751.13;5077620;28;20432;-96
2021/06/21 06:20:24;;;;;;;2.50;2.07;;;;;;;25.19;64.04;157850.59;5077055;28;20422;-96
2021/06/21 06:23:00;;;;;;;4.40;1.90;;;;;;;25.53;62.66;157938.31;5077011;28;20437;-96
2021/06/21 06:25:37;;;;;;;3.20;1.80;;;;;;;25.74;63.61;157993.28;5077355;28;20425;-96
2021/06/21 06:28:13;;;;;;;5.00;1.80;;;;;;;25.84;61.10;158019.44;5077827;28;20421;-96
2021/06/21 06:30:50;;;;;;;4.63;2.07;;;;;;;25.67;60.68;157973.66;5095458;28;20441;-96
2021/06/21 06:33:25;;;;;;;6.47;2.20;;;;;;;26.03;61.43;158069.22;5094517;28;20849;-96
2021/06/21 06:36:00;;;;;;;5.40;2.10;;;;;;;25.80;61.58;158009.00;5087000;28;20445;-96
2021/06/21 06:38:36;;;;;;;3.13;1.60;;;;;;;26.15;61.12;158099.41;5098583;28;20421;-96
2021/06/21 06:41:11;;;;;;;9.10;2.13;;;;;;;26.58;59.79;158212.00;5081756;28;20831;-96
2021/06/21 06:43:47;;;;;;;4.00;1.63;;;;;;;26.97;59.18;158311.63;5078266;28;20587;-96
2021/06/21 06:46:24;;;;;;;3.60;1.80;;;;;;;26.90;58.54;158294.56;5078294;28;21025;-96
2021/06/21 06:48:59;;;;;;;5.03;1.57;;;;;;;27.28;56.20;158391.50;5080927;28;20429;-96
2021/06/21 06:51:39;;;;;;;4.50;1.77;;;;;;;27.43;56.77;158432.19;5081791;28;20527;-96
2021/06/21 06:54:23;;;;;;;4.73;1.90;;;;;;;27.79;54.62;158525.25;5067091;28;20438;-96
2021/06/21 06:57:00;;;;;;;2.90;2.07;;;;;;;27.95;54.07;158565.91;5078035;28;20828;-96
2021/06/21 06:59:38;;;;;;;6.40;2.13;;;;;;;27.94;53.33;158564.56;5080058;28;20770;-95
2021/06/21 07:02:21;;;;;;;9.33;1.90;;;;;;;28.52;53.32;158715.41;5095153;28;20414;-96
2021/06/21 07:04:57;;;;;;;4.87;2.20;;;;;;;28.49;53.71;158706.25;5077087;28;20442;-96
2021/06/21 07:07:32;;;;;;;6.33;1.97;;;;;;;28.48;51.49;158704.94;5099409;28;20866;-96
2021/06/21 07:10:09;;;;;;;2.70;1.33;;;;;;;29.01;52.09;158842.69;5077191;28;20481;-96
2021/06/21 07:12:44;;;;;;;2.20;1.40;;;;;;;29.26;50.70;158906.97;5077548;28;20796;-96
2021/06/21 07:15:20;;;;;;;4.10;1.70;;;;;;;29.27;49.04;158909.63;5076390;28;20449;-96
2021/06/21 07:17:57;;;;;;;3.77;1.60;;;;;;;29.38;50.04;158938.50;5077587;28;20483;-96
2021/06/21 07:20:32;;;;;;;3.47;1.40;;;;;;;29.75;49.05;159035.59;5076657;28;20441;-96
2021/06/21 07:23:08;;;;;;;2.90;1.57;;;;;;;29.39;48.55;158941.09;5098569;28;20410;-96
2021/06/21 07:25:44;;;;;;;6.87;1.90;;;;;;;29.67;47.89;159013.28;5098254;28;20433;-96
2021/06/21 07:28:20;;;;;;;4.30;1.40;;;;;;;29.86;48.48;159064.53;5066054;28;20433;-96
2021/06/21 07:30:55;;;;;;;4.00;1.50;;;;;;;30.09;47.18;159124.91;5064616;28;20437;-96
2021/06/21 07:33:32;;;;;;;3.27;1.63;;;;;;;30.27;49.30;159169.50;5080211;28;20894;-96
2021/06/21 07:36:08;;;;;;;3.10;1.20;;;;;;;30.37;47.95;159197.13;5080956;28;20437;-95
2021/06/21 07:38:44;;;;;;;3.60;2.00;;;;;;;30.38;46.17;159199.75;5080722;28;20437;-96
2021/06/21 07:41:19;;;;;;;3.13;1.43;;;;;;;30.80;46.35;159307.41;5080056;28;20445;-96
2021/06/21 07:43:55;;;;;;;1.40;1.13;;;;;;;31.01;44.97;159363.94;5080168;28;20444;-95
2021/06/21 07:46:32;;;;;;;2.77;1.87;;;;;;;30.94;43.84;159345.56;5080260;28;20848;-96
2021/06/21 07:49:09;;;;;;;1.87;1.30;;;;;;;30.78;43.46;159303.50;5079593;28;20437;-95
2021/06/21 07:51:44;;;;;;;5.90;2.07;;;;;;;30.23;45.51;159159.03;5098049;28;20433;-95
2021/06/21 07:54:20;;;;;;;2.90;2.10;;;;;;;30.52;43.81;159235.22;5079817;28;20465;-96
2021/06/21 07:56:56;;;;;;;2.93;1.40;;;;;;;30.52;44.89;159235.22;5079751;28;20437;-96
2021/06/21 07:59:31;;;;;;;3.30;1.90;;;;;;;30.43;45.04;159211.56;5097575;28;20792;-94
2021/06/21 08:02:07;;;;;;;2.80;1.70;;;;;;;30.58;44.70;159251.00;5097756;28;20617;-94
2021/06/21 08:04:47;;;;;;;3.43;1.63;;;;;;;30.83;44.72;159316.63;5079056;28;20463;-94
2021/06/21 08:07:22;;;;;;;3.30;1.50;;;;;;;30.95;44.04;159348.16;5097420;28;20413;-94
2021/06/21 08:09:57;;;;;;;3.57;1.53;;;;;;;30.98;42.79;159356.06;5079080;28;20443;-94
2021/06/21 08:12:33;;;;;;;3.20;1.50;;;;;;;31.06;43.57;159377.06;5079240;28;20527;-94
2021/06/21 08:15:10;;;;;;;5.07;1.67;;;;;;;30.72;43.86;159289.03;5079329;28;20841;-95
2021/06/21 08:17:45;;;;;;;3.27;1.73;;;;;;;30.90;43.85;159334.97;5079453;28;20436;-94
2021/06/21 08:20:22;;;;;;;4.10;1.47;;;;;;;31.69;41.98;159541.31;5096997;28;20903;-95
2021/06/21 08:22:58;;;;;;;3.00;1.50;;;;;;;31.84;42.36;159580.75;5079102;28;20425;-95
2021/06/21 08:25:33;;;;;;;4.13;1.80;;;;;;;31.60;41.48;159516.38;5063646;28;20784;-95
2021/06/21 08:28:09;;;;;;;2.43;1.33;;;;;;;31.07;43.37;159378.38;5078726;28;20849;-95
2021/06/21 08:30:47;;;;;;;1.80;1.20;;;;;;;30.75;44.45;159296.94;5063271;28;20445;-95
2021/06/21 08:33:23;;;;;;;4.50;1.30;;;;;;;31.33;43.67;159448.00;5095242;28;20477;-94
2021/06/21 08:36:01;;;;;;;5.43;2.07;;;;;;;31.47;43.30;159483.53;5078448;28;20539;-95
2021/06/21 08:38:36;;;;;;;7.73;4.90;;;;;;;31.75;42.04;159557.09;5079084;28;20421;-95
2021/06/21 08:41:12;;;;;;;2.50;1.43;;;;;;;31.48;41.23;159486.13;5078662;28;20530;-94
2021/06/21 08:43:48;;;;;;;3.23;1.67;;;;;;;31.88;43.09;159589.91;5096627;28;20887;-94
2021/06/21 08:46:23;;;;;;;5.20;1.63;;;;;;;32.31;44.16;159701.69;5097662;28;20432;-94
2021/06/21 08:49:00;;;;;;;3.10;1.63;;;;;;;31.52;43.09;159495.34;5078549;28;20485;-95
2021/06/21 08:51:41;;;;;;;2.80;1.53;;;;;;;31.38;43.19;159459.81;5096253;28;20434;-94
2021/06/21 08:54:16;;;;;;;4.97;1.77;;;;;;;31.73;44.70;159550.53;5078027;28;20472;-94
2021/06/21 08:56:55;;;;;;;1.97;1.60;;;;;;;31.35;42.16;159453.25;5078471;28;20437;-94
2021/06/21 08:59:30;;;;;;;3.27;1.50;;;;;;;31.90;42.37;159596.50;5096244;28;20409;-94
2021/06/21 09:02:06;;;;;;;2.43;1.73;;;;;;;31.80;45.04;159568.91;5077830;28;20444;-94
2021/06/21 09:04:42;;;;;;;2.80;1.63;;;;;;;32.18;42.25;159668.84;5077926;28;20429;-95
2021/06/21 09:07:21;;;;;;;1.53;1.43;;;;;;;32.42;42.07;159730.59;5078103;28;20432;-94
2021/06/21 09:09:57;;;;;;;2.87;1.50;;;;;;;32.45;43.01;159738.50;5078597;28;20425;-95
2021/06/21 09:12:33;;;;;;;2.40;1.60;;;;;;;32.70;44.04;159804.25;5095900;28;20440;-94
2021/06/21 09:15:10;;;;;;;4.70;1.43;;;;;;;32.45;39.83;159739.81;5077906;28;20894;-93
2021/06/21 09:17:45;;;;;;;3.50;1.60;;;;;;;32.61;39.73;159779.28;5077728;28;20464;-94
2021/06/21 09:20:21;;;;;;;3.30;1.87;;;;;;;32.57;39.74;159770.06;5078019;28;20448;-94
2021/06/21 09:23:01;;;;;;;5.03;1.63;;;;;;;32.17;40.27;159666.19;5078122;28;20432;-94
2021/06/21 09:25:38;;;;;;;4.07;1.90;;;;;;;32.14;41.17;159658.34;5095828;28;20421;-92
2021/06/21 09:28:14;;;;;;;2.33;2.10;;;;;;;31.79;39.80;159566.28;5071897;28;20540;-79
2021/06/21 09:30:51;;;;;;;5.13;2.10;;;;;;;32.30;40.14;159700.34;5064022;28;20544;-80
2021/06/21 09:33:30;;;;;;;4.20;1.60;;;;;;;32.66;40.22;159792.44;5071254;28;20916;-79
2021/06/21 09:36:06;;;;;;;5.37;1.70;;;;;;;32.41;39.88;159729.28;5085608;28;20452;-80
2021/06/21 09:38:43;;;;;;;5.57;1.60;;;;;;;32.53;39.15;159758.25;5075783;28;20812;-79
2021/06/21 09:41:21;;;;;;;2.23;1.57;;;;;;;32.10;39.93;159646.47;5076604;28;20522;-79
2021/06/21 09:43:57;;;;;;;3.23;1.50;;;;;;;32.56;42.38;159766.16;5075049;28;20842;-80
2021/06/21 09:46:33;;;;;;;3.60;2.10;;;;;;;31.34;40.53;159450.66;5084470;28;20433;-80
2021/06/21 09:49:08;;;;;;;3.73;1.60;;;;;;;31.08;40.19;159381.03;5089985;28;20443;-80
2021/06/21 09:51:44;;;;;;;4.43;1.60;;;;;;;31.42;43.60;159469.03;5085344;28;20456;-80
2021/06/21 09:54:22;;;;;;;2.37;1.33;;;;;;;31.80;42.51;159568.91;5076720;28;20463;-83
2021/06/21 09:56:58;;;;;;;2.47;1.67;;;;;;;32.02;44.35;159625.47;5089398;28;20871;-80
2021/06/21 09:59:35;;;;;;;2.80;1.40;;;;;;;31.48;46.98;159486.13;5091320;28;20432;-80
2021/06/21 10:02:12;;;;;;;2.40;1.70;;;;;;;31.35;42.79;159451.91;5086488;28;20445;-80
2021/06/21 10:04:48;;;;;;;3.07;1.90;;;;;;;31.15;41.48;159399.41;5075481;28;20433;-94
2021/06/21 10:07:28;;;;;;;2.60;1.43;;;;;;;31.65;40.32;159529.50;5081509;28;20423;-93
2021/06/21 10:10:08;;;;;;;6.53;3.10;;;;;;;31.71;40.91;159545.28;5096489;28;20448;-94
2021/06/21 10:12:44;;;;;;;3.93;1.80;;;;;;;31.76;41.27;159558.41;5114765;28;20852;-93
2021/06/21 10:15:20;;;;;;;6.80;2.07;;;;;;;31.94;41.27;159607.03;5077425;28;20472;-93
2021/06/21 10:17:56;;;;;;;2.90;1.83;;;;;;;31.80;42.20;159568.91;5114594;28;20447;-93
2021/06/21 10:20:31;;;;;;;3.13;1.60;;;;;;;31.41;42.56;159466.38;5076321;28;20441;-94
2021/06/21 10:23:07;;;;;;;2.30;1.47;;;;;;;30.89;40.00;159332.38;5093342;28;20935;-94
2021/06/21 10:25:44;;;;;;;3.70;2.13;;;;;;;30.90;43.91;159334.97;5076813;28;20455;-94
2021/06/21 10:28:19;;;;;;;3.50;1.93;;;;;;;31.03;40.66;159369.19;5093945;28;20436;-93
2021/06/21 10:30:55;;;;;;;3.07;1.90;;;;;;;30.81;41.92;159310.06;5082498;28;20535;-93
2021/06/21 10:33:30;;;;;;;4.60;2.00;;;;;;;30.37;45.66;159195.84;5075511;28;20901;-93
2021/06/21 10:36:08;;;;;;;2.23;1.97;;;;;;;30.45;47.63;159218.13;5075404;28;20456;-94
2021/06/21 10:38:43;;;;;;;3.37;1.87;;;;;;;30.55;44.47;159243.09;5074151;28;20851;-94
2021/06/21 10:41:20;;;;;;;4.70;1.70;;;;;;;30.46;45.93;159220.78;5085431;28;21021;-94
2021/06/21 10:43:55;;;;;;;3.43;1.77;;;;;;;30.52;42.44;159235.22;5087868;28;20951;-93
2021/06/21 10:46:31;;;;;;;5.80;2.00;;;;;;;30.61;42.73;159258.81;5055777;28;20850;-92
2021/06/21 10:49:30;;;;;;;3.43;1.60;;;;;;;30.78;42.50;159303.50;5067528;28;20966;-93
2021/06/21 10:52:39;;;;;;;2.00;1.80;;;;;;;30.60;40.54;159257.56;5088383;28;20541;-93
2021/06/21 10:55:35;;;;;;;3.00;2.07;;;;;;;30.13;43.46;159135.38;5073111;28;20952;-93
2021/06/21 10:58:43;;;;;;;2.93;2.13;;;;;;;29.51;44.01;158973.94;5077009;28;20403;-93
2021/06/21 11:01:21;;;;;;;3.50;1.93;;;;;;;29.43;43.86;158951.63;5061663;28;20473;-94
2021/06/21 11:03:56;;;;;;;3.60;1.73;;;;;;;29.61;44.69;158997.53;5073479;28;20443;-93
2021/06/21 11:06:37;;;;;;;3.93;2.17;;;;;;;29.31;45.53;158921.41;5075582;28;20445;-93
2021/06/21 11:09:12;;;;;;;3.10;2.20;;;;;;;29.52;43.35;158975.25;5075199;28;20433;-93
2021/06/21 11:11:51;;;;;;;2.17;1.90;;;;;;;29.48;42.06;158966.06;5073753;28;20461;-92
2021/06/21 11:14:29;;;;;;;2.73;2.03;;;;;;;29.59;41.86;158993.59;5075370;28;20465;-92
2021/06/21 11:17:19;;;;;;;2.93;1.97;;;;;;;29.47;43.89;158963.41;5065015;28;20489;-91
2021/06/21 11:19:55;;;;;;;3.53;2.30;;;;;;;29.48;49.47;158966.06;5060313;28;20495;-91
2021/06/21 11:22:45;;;;;;;2.30;2.10;;;;;;;29.06;43.22;158854.47;5039949;28;20448;-92
2021/06/21 11:25:21;;;;;;;2.30;2.00;;;;;;;28.93;44.07;158823.03;5054595;28;20438;-92
2021/06/21 11:27:58;;;;;;;2.20;2.00;;;;;;;28.68;43.83;158757.41;5088640;28;20820;-92
2021/06/21 11:30:38;;;;;;;3.50;2.00;;;;;;;28.84;45.18;158799.38;5076606;28;20479;-90
2021/06/21 11:33:15;;;;;;;2.60;1.67;;;;;;;28.45;45.11;158697.06;5075071;28;20469;-91
2021/06/21 11:36:00;;;;;;;2.80;1.70;;;;;;;28.33;45.41;158665.56;5074681;28;20575;-92
2021/06/21 11:38:38;;;;;;;2.30;1.97;;;;;;;28.58;45.57;158731.16;5064417;28;20441;-91
2021/06/21 11:41:27;;;;;;;2.47;1.80;;;;;;;28.82;44.64;158794.16;5074981;28;20437;-91
2021/06/21 11:44:04;;;;;;;2.97;1.90;;;;;;;29.08;49.94;158861.03;5057728;28;20438;-91
2021/06/21 11:46:43;;;;;;;3.30;1.80;;;;;;;28.88;45.76;158808.59;5057578;28;20453;-91
2021/06/21 11:49:21;;;;;;;3.53;1.90;;;;;;;28.91;46.25;158817.72;5073360;28;20823;-91
2021/06/21 11:52:02;;;;;;;2.43;1.97;;;;;;;28.79;45.14;158786.28;5055245;28;20482;-91
2021/06/21 11:54:44;;;;;;;4.10;2.73;;;;;;;28.46;45.42;158698.38;5058074;28;20457;-91
2021/06/21 11:57:22;;;;;;;4.00;2.17;;;;;;;28.58;45.90;158731.16;5074452;28;20444;-91
2021/06/21 11:59:58;;;;;;;2.70;1.80;;;;;;;28.34;44.32;158668.19;5068665;28;20535;-91
2021/06/21 12:02:35;;;;;;;2.03;1.83;;;;;;;28.23;45.07;158639.34;5039184;28;20821;-91
2021/06/21 12:05:11;;;;;;;3.03;2.20;;;;;;;28.07;43.58;158597.38;5062659;28;20446;-91
2021/06/21 12:07:47;;;;;;;1.97;1.70;;;;;;;27.78;45.49;158523.94;5063914;28;20555;-75